sensor_id;sensor_type;location;lat;lon;timestamp;pressure;altitude;pressure_sealevel;temperature;humidity
67397;BME280;57728;50.448;18.824;2022-07-23T00:00:32;97952.00;;;24.61;39.33
67397;BME280;57728;50.448;18.824;2022-07-23T00:02:35;97951.91;;;24.53;39.91
67397;BME280;57728;50.448;18.824;2022-07-23T00:04:36;97948.31;;;24.49;40.46
67397;BME280;57728;50.448;18.824;2022-07-23T00:06:37;97946.25;;;24.43;40.13
67397;BME280;57728;50.448;18.824;2022-07-23T00:08:54;97947.38;;;24.38;41.67
67397;BME280;57728;50.448;18.824;2022-07-23T00:10:55;97954.44;;;24.36;42.14
67397;BME280;57728;50.448;18.824;2022-07-23T00:12:56;97949.69;;;24.32;43.07
67397;BME280;57728;50.448;18.824;2022-07-23T00:14:58;97952.78;;;24.27;43.48
67397;BME280;57728;50.448;18.824;2022-07-23T00:16:59;97954.59;;;24.20;43.89
67397;BME280;57728;50.448;18.824;2022-07-23T00:19:00;97938.78;;;24.13;44.39
67397;BME280;57728;50.448;18.824;2022-07-23T00:21:04;97950.78;;;24.01;44.69
67397;BME280;57728;50.448;18.824;2022-07-23T00:23:05;97949.84;;;23.90;46.08
67397;BME280;57728;50.448;18.824;2022-07-23T00:25:06;97956.41;;;23.82;46.53
67397;BME280;57728;50.448;18.824;2022-07-23T00:27:08;97950.00;;;23.74;47.01
67397;BME280;57728;50.448;18.824;2022-07-23T00:29:09;97951.88;;;23.70;47.21
67397;BME280;57728;50.448;18.824;2022-07-23T00:31:10;97943.50;;;23.59;47.62
67397;BME280;57728;50.448;18.824;2022-07-23T00:33:12;97946.41;;;23.47;48.09
67397;BME280;57728;50.448;18.824;2022-07-23T00:35:14;97945.91;;;23.42;48.27
67397;BME280;57728;50.448;18.824;2022-07-23T00:37:15;97937.31;;;23.43;48.52
67397;BME280;57728;50.448;18.824;2022-07-23T00:39:17;97942.81;;;23.43;48.64
67397;BME280;57728;50.448;18.824;2022-07-23T00:41:19;97936.38;;;23.35;48.61
67397;BME280;57728;50.448;18.824;2022-07-23T00:43:21;97947.56;;;23.23;48.75
67397;BME280;57728;50.448;18.824;2022-07-23T00:45:23;97945.06;;;23.15;49.10
67397;BME280;57728;50.448;18.824;2022-07-23T00:47:24;97954.75;;;23.08;48.46
67397;BME280;57728;50.448;18.824;2022-07-23T00:49:28;97956.66;;;23.04;48.13
67397;BME280;57728;50.448;18.824;2022-07-23T00:51:31;97959.69;;;22.99;48.04
67397;BME280;57728;50.448;18.824;2022-07-23T00:53:33;97955.34;;;22.98;48.32
67397;BME280;57728;50.448;18.824;2022-07-23T00:55:35;97952.19;;;22.96;48.07
67397;BME280;57728;50.448;18.824;2022-07-23T00:57:38;97957.19;;;22.91;47.88
67397;BME280;57728;50.448;18.824;2022-07-23T00:59:41;97951.16;;;22.85;48.05
67397;BME280;57728;50.448;18.824;2022-07-23T01:01:42;97942.03;;;22.81;47.97
67397;BME280;57728;50.448;18.824;2022-07-23T01:03:49;97947.91;;;22.79;48.15
67397;BME280;57728;50.448;18.824;2022-07-23T01:05:50;97948.63;;;22.76;47.88
67397;BME280;57728;50.448;18.824;2022-07-23T01:07:52;97948.22;;;22.74;47.64
67397;BME280;57728;50.448;18.824;2022-07-23T01:09:54;97949.34;;;22.73;48.06
67397;BME280;57728;50.448;18.824;2022-07-23T01:11:57;97946.13;;;22.68;47.89
67397;BME280;57728;50.448;18.824;2022-07-23T01:13:59;97935.06;;;22.64;48.19
67397;BME280;57728;50.448;18.824;2022-07-23T01:16:08;97940.53;;;22.64;47.85
67397;BME280;57728;50.448;18.824;2022-07-23T01:18:09;97935.44;;;22.62;47.88
67397;BME280;57728;50.448;18.824;2022-07-23T01:20:13;97938.88;;;22.59;47.12
67397;BME280;57728;50.448;18.824;2022-07-23T01:22:18;97933.31;;;22.56;47.20
67397;BME280;57728;50.448;18.824;2022-07-23T01:24:20;97939.91;;;22.51;47.26
67397;BME280;57728;50.448;18.824;2022-07-23T01:26:32;97938.25;;;22.47;46.99
67397;BME280;57728;50.448;18.824;2022-07-23T01:28:34;97934.72;;;22.46;47.17
67397;BME280;57728;50.448;18.824;2022-07-23T01:30:35;97935.56;;;22.50;47.28
67397;BME280;57728;50.448;18.824;2022-07-23T01:32:40;97926.25;;;22.55;46.12
67397;BME280;57728;50.448;18.824;2022-07-23T01:34:43;97927.53;;;22.61;46.77
67397;BME280;57728;50.448;18.824;2022-07-23T01:36:44;97928.78;;;22.63;46.46
67397;BME280;57728;50.448;18.824;2022-07-23T01:38:45;97927.59;;;22.64;45.67
67397;BME280;57728;50.448;18.824;2022-07-23T01:40:47;97931.94;;;22.66;45.73
67397;BME280;57728;50.448;18.824;2022-07-23T01:42:49;97939.81;;;22.67;45.59
67397;BME280;57728;50.448;18.824;2022-07-23T01:44:51;97937.50;;;22.69;45.83
67397;BME280;57728;50.448;18.824;2022-07-23T01:46:56;97931.94;;;22.66;45.71
67397;BME280;57728;50.448;18.824;2022-07-23T01:48:57;97934.34;;;22.67;45.78
67397;BME280;57728;50.448;18.824;2022-07-23T01:51:19;97934.41;;;22.71;45.23
67397;BME280;57728;50.448;18.824;2022-07-23T01:53:29;97941.91;;;22.74;44.94
67397;BME280;57728;50.448;18.824;2022-07-23T01:55:32;97932.16;;;22.76;45.25
67397;BME280;57728;50.448;18.824;2022-07-23T01:57:33;97934.09;;;22.76;44.97
67397;BME280;57728;50.448;18.824;2022-07-23T01:59:35;97928.16;;;22.74;45.30
67397;BME280;57728;50.448;18.824;2022-07-23T02:01:38;97936.84;;;22.76;45.21
67397;BME280;57728;50.448;18.824;2022-07-23T02:03:39;97928.63;;;22.76;45.19
67397;BME280;57728;50.448;18.824;2022-07-23T02:05:41;97932.22;;;22.80;44.88
67397;BME280;57728;50.448;18.824;2022-07-23T02:07:42;97925.56;;;22.81;44.69
67397;BME280;57728;50.448;18.824;2022-07-23T02:09:43;97933.00;;;22.80;45.06
67397;BME280;57728;50.448;18.824;2022-07-23T02:11:47;97923.59;;;22.81;44.56
67397;BME280;57728;50.448;18.824;2022-07-23T02:13:48;97932.28;;;22.83;44.62
67397;BME280;57728;50.448;18.824;2022-07-23T02:15:50;97930.34;;;22.84;44.43
67397;BME280;57728;50.448;18.824;2022-07-23T02:17:52;97929.63;;;22.87;45.00
67397;BME280;57728;50.448;18.824;2022-07-23T02:19:53;97933.59;;;22.90;44.58
67397;BME280;57728;50.448;18.824;2022-07-23T02:21:56;97939.59;;;22.95;43.87
67397;BME280;57728;50.448;18.824;2022-07-23T02:23:58;97938.13;;;23.01;44.24
67397;BME280;57728;50.448;18.824;2022-07-23T02:26:00;97945.03;;;22.92;45.63
67397;BME280;57728;50.448;18.824;2022-07-23T02:28:03;97947.03;;;22.75;46.44
67397;BME280;57728;50.448;18.824;2022-07-23T02:30:06;97943.84;;;22.54;48.29
67397;BME280;57728;50.448;18.824;2022-07-23T02:32:08;97941.47;;;22.33;49.07
67397;BME280;57728;50.448;18.824;2022-07-23T02:34:09;97941.38;;;22.10;49.85
67397;BME280;57728;50.448;18.824;2022-07-23T02:36:13;97932.56;;;21.85;50.56
67397;BME280;57728;50.448;18.824;2022-07-23T02:38:16;97932.50;;;21.65;51.38
67397;BME280;57728;50.448;18.824;2022-07-23T02:40:18;97936.06;;;21.50;52.25
67397;BME280;57728;50.448;18.824;2022-07-23T02:42:20;97929.03;;;21.37;52.38
67397;BME280;57728;50.448;18.824;2022-07-23T02:44:23;97922.94;;;21.28;52.63
67397;BME280;57728;50.448;18.824;2022-07-23T02:46:26;97936.47;;;21.21;53.38
67397;BME280;57728;50.448;18.824;2022-07-23T02:48:29;97931.53;;;21.10;53.33
67397;BME280;57728;50.448;18.824;2022-07-23T02:50:31;97942.66;;;21.02;53.59
67397;BME280;57728;50.448;18.824;2022-07-23T02:52:34;97928.41;;;20.96;53.94
67397;BME280;57728;50.448;18.824;2022-07-23T02:54:37;97927.50;;;20.92;53.77
67397;BME280;57728;50.448;18.824;2022-07-23T02:56:38;97925.22;;;20.94;53.53
67397;BME280;57728;50.448;18.824;2022-07-23T02:58:39;97922.91;;;20.96;53.19
67397;BME280;57728;50.448;18.824;2022-07-23T03:00:41;97927.25;;;20.97;52.55
67397;BME280;57728;50.448;18.824;2022-07-23T03:02:42;97919.50;;;20.99;52.48
67397;BME280;57728;50.448;18.824;2022-07-23T03:04:43;97922.31;;;21.03;52.56
67397;BME280;57728;50.448;18.824;2022-07-23T03:06:47;97925.50;;;21.05;52.12
67397;BME280;57728;50.448;18.824;2022-07-23T03:08:48;97929.84;;;21.06;52.10
67397;BME280;57728;50.448;18.824;2022-07-23T03:10:49;97926.38;;;21.09;51.67
67397;BME280;57728;50.448;18.824;2022-07-23T03:12:51;97940.16;;;21.12;51.54
67397;BME280;57728;50.448;18.824;2022-07-23T03:14:52;97930.09;;;21.16;51.17
67397;BME280;57728;50.448;18.824;2022-07-23T03:16:53;97927.53;;;21.24;51.05
67397;BME280;57728;50.448;18.824;2022-07-23T03:18:56;97926.47;;;21.28;50.36
67397;BME280;57728;50.448;18.824;2022-07-23T03:20:57;97920.72;;;21.33;50.34
67397;BME280;57728;50.448;18.824;2022-07-23T03:22:59;97926.41;;;21.40;50.30
67397;BME280;57728;50.448;18.824;2022-07-23T03:25:02;97925.44;;;21.49;50.23
67397;BME280;57728;50.448;18.824;2022-07-23T03:27:09;97925.19;;;21.54;50.02
67397;BME280;57728;50.448;18.824;2022-07-23T03:29:11;97923.75;;;21.60;49.76
67397;BME280;57728;50.448;18.824;2022-07-23T03:31:13;97923.13;;;21.67;49.61
67397;BME280;57728;50.448;18.824;2022-07-23T03:33:15;97918.97;;;21.73;48.94
67397;BME280;57728;50.448;18.824;2022-07-23T03:35:18;97918.72;;;21.78;48.83
67397;BME280;57728;50.448;18.824;2022-07-23T03:37:27;97916.47;;;21.83;48.75
67397;BME280;57728;50.448;18.824;2022-07-23T03:39:31;97919.72;;;21.89;48.94
67397;BME280;57728;50.448;18.824;2022-07-23T03:41:32;97921.03;;;21.95;48.78
67397;BME280;57728;50.448;18.824;2022-07-23T03:43:34;97925.44;;;22.00;48.58
67397;BME280;57728;50.448;18.824;2022-07-23T03:45:35;97924.38;;;22.04;48.63
67397;BME280;57728;50.448;18.824;2022-07-23T03:47:37;97917.47;;;22.10;48.14
67397;BME280;57728;50.448;18.824;2022-07-23T03:49:40;97924.28;;;22.17;48.02
67397;BME280;57728;50.448;18.824;2022-07-23T03:51:41;97923.97;;;22.22;48.44
67397;BME280;57728;50.448;18.824;2022-07-23T03:53:44;97928.03;;;22.28;48.32
67397;BME280;57728;50.448;18.824;2022-07-23T03:55:46;97937.16;;;22.32;48.07
67397;BME280;57728;50.448;18.824;2022-07-23T03:57:47;97936.06;;;22.36;48.25
67397;BME280;57728;50.448;18.824;2022-07-23T03:59:48;97934.19;;;22.41;48.05
67397;BME280;57728;50.448;18.824;2022-07-23T04:01:51;97932.38;;;22.48;48.58
67397;BME280;57728;50.448;18.824;2022-07-23T04:03:53;97937.56;;;22.53;48.30
67397;BME280;57728;50.448;18.824;2022-07-23T04:05:54;97936.16;;;22.59;48.08
67397;BME280;57728;50.448;18.824;2022-07-23T04:07:57;97938.66;;;22.68;47.85
67397;BME280;57728;50.448;18.824;2022-07-23T04:09:58;97934.47;;;22.74;47.33
67397;BME280;57728;50.448;18.824;2022-07-23T04:11:59;97929.84;;;22.78;47.38
67397;BME280;57728;50.448;18.824;2022-07-23T04:14:01;97933.81;;;22.81;47.41
67397;BME280;57728;50.448;18.824;2022-07-23T04:16:02;97922.88;;;22.84;47.40
67397;BME280;57728;50.448;18.824;2022-07-23T04:18:05;97934.75;;;22.88;47.58
67397;BME280;57728;50.448;18.824;2022-07-23T04:20:19;97929.75;;;22.94;47.49
67397;BME280;57728;50.448;18.824;2022-07-23T04:22:27;97925.94;;;22.99;47.57
67397;BME280;57728;50.448;18.824;2022-07-23T04:24:29;97922.50;;;23.05;47.08
67397;BME280;57728;50.448;18.824;2022-07-23T04:26:30;97922.56;;;23.09;47.37
67397;BME280;57728;50.448;18.824;2022-07-23T04:28:32;97918.72;;;23.13;47.18
67397;BME280;57728;50.448;18.824;2022-07-23T04:30:33;97920.03;;;23.20;46.79
67397;BME280;57728;50.448;18.824;2022-07-23T04:32:35;97916.16;;;23.24;46.44
67397;BME280;57728;50.448;18.824;2022-07-23T04:34:38;97930.31;;;23.26;46.08
67397;BME280;57728;50.448;18.824;2022-07-23T04:36:40;97918.97;;;23.28;46.40
67397;BME280;57728;50.448;18.824;2022-07-23T04:38:42;97922.13;;;23.30;46.15
67397;BME280;57728;50.448;18.824;2022-07-23T04:40:44;97914.69;;;23.30;46.70
67397;BME280;57728;50.448;18.824;2022-07-23T04:42:46;97922.13;;;23.30;46.46
67397;BME280;57728;50.448;18.824;2022-07-23T04:44:49;97921.00;;;23.31;46.44
67397;BME280;57728;50.448;18.824;2022-07-23T04:46:51;97915.91;;;23.33;46.46
67397;BME280;57728;50.448;18.824;2022-07-23T04:48:52;97919.50;;;23.37;46.35
67397;BME280;57728;50.448;18.824;2022-07-23T04:50:54;97908.97;;;23.39;46.17
67397;BME280;57728;50.448;18.824;2022-07-23T04:52:59;97913.69;;;23.42;46.23
67397;BME280;57728;50.448;18.824;2022-07-23T04:55:01;97917.28;;;23.46;45.92
67397;BME280;57728;50.448;18.824;2022-07-23T04:57:03;97920.53;;;23.52;46.03
67397;BME280;57728;50.448;18.824;2022-07-23T04:59:04;97908.84;;;23.58;46.11
67397;BME280;57728;50.448;18.824;2022-07-23T05:01:05;97918.84;;;23.67;46.10
67397;BME280;57728;50.448;18.824;2022-07-23T05:03:10;97903.66;;;23.76;45.94
67397;BME280;57728;50.448;18.824;2022-07-23T05:05:12;97910.84;;;23.84;45.75
67397;BME280;57728;50.448;18.824;2022-07-23T05:07:15;97913.72;;;23.92;45.10
67397;BME280;57728;50.448;18.824;2022-07-23T05:09:17;97910.69;;;24.00;45.40
67397;BME280;57728;50.448;18.824;2022-07-23T05:11:18;97914.00;;;24.13;45.23
67397;BME280;57728;50.448;18.824;2022-07-23T05:13:19;97918.88;;;24.23;45.35
67397;BME280;57728;50.448;18.824;2022-07-23T05:15:21;97918.59;;;24.32;45.49
67397;BME280;57728;50.448;18.824;2022-07-23T05:17:23;97923.03;;;24.40;45.19
67397;BME280;57728;50.448;18.824;2022-07-23T05:19:24;97917.63;;;24.47;44.95
67397;BME280;57728;50.448;18.824;2022-07-23T05:21:26;97914.56;;;24.56;45.11
67397;BME280;57728;50.448;18.824;2022-07-23T05:23:27;97918.25;;;24.67;45.07
67397;BME280;57728;50.448;18.824;2022-07-23T05:25:28;97912.38;;;24.72;44.26
67397;BME280;57728;50.448;18.824;2022-07-23T05:27:31;97916.38;;;24.78;44.52
67397;BME280;57728;50.448;18.824;2022-07-23T05:29:32;97909.75;;;24.87;44.22
67397;BME280;57728;50.448;18.824;2022-07-23T05:31:34;97910.31;;;24.96;44.00
67397;BME280;57728;50.448;18.824;2022-07-23T05:33:36;97910.78;;;25.05;43.41
67397;BME280;57728;50.448;18.824;2022-07-23T05:35:37;97903.78;;;25.15;43.58
67397;BME280;57728;50.448;18.824;2022-07-23T05:37:52;97905.81;;;25.21;43.18
67397;BME280;57728;50.448;18.824;2022-07-23T05:39:55;97903.88;;;25.25;43.30
67397;BME280;57728;50.448;18.824;2022-07-23T05:41:56;97901.94;;;25.29;43.22
67397;BME280;57728;50.448;18.824;2022-07-23T05:43:57;97900.03;;;25.37;43.11
67397;BME280;57728;50.448;18.824;2022-07-23T05:46:00;97900.84;;;25.41;42.47
67397;BME280;57728;50.448;18.824;2022-07-23T05:48:02;97894.94;;;25.43;42.24
67397;BME280;57728;50.448;18.824;2022-07-23T05:50:11;97892.22;;;25.46;42.10
67397;BME280;57728;50.448;18.824;2022-07-23T05:52:21;97885.56;;;25.51;42.09
67397;BME280;57728;50.448;18.824;2022-07-23T05:54:58;97882.06;;;25.57;42.16
67397;BME280;57728;50.448;18.824;2022-07-23T05:57:00;97880.16;;;25.62;42.20
67397;BME280;57728;50.448;18.824;2022-07-23T05:59:02;97875.88;;;25.68;42.09
67397;BME280;57728;50.448;18.824;2022-07-23T06:01:04;97875.88;;;25.75;42.00
67397;BME280;57728;50.448;18.824;2022-07-23T06:03:12;97866.09;;;25.81;42.13
67397;BME280;57728;50.448;18.824;2022-07-23T06:05:14;97871.66;;;25.88;42.09
67397;BME280;57728;50.448;18.824;2022-07-23T06:07:16;97869.72;;;25.99;42.20
67397;BME280;57728;50.448;18.824;2022-07-23T06:09:17;97867.78;;;26.07;41.82
67397;BME280;57728;50.448;18.824;2022-07-23T06:11:19;97857.16;;;26.09;40.92
67397;BME280;57728;50.448;18.824;2022-07-23T06:13:22;97863.84;;;26.12;40.73
67397;BME280;57728;50.448;18.824;2022-07-23T06:15:23;97854.78;;;26.11;40.00
67397;BME280;57728;50.448;18.824;2022-07-23T06:17:26;97848.47;;;26.11;40.02
67397;BME280;57728;50.448;18.824;2022-07-23T06:19:28;97856.00;;;26.14;40.15
67397;BME280;57728;50.448;18.824;2022-07-23T06:21:29;97855.59;;;26.19;40.56
67397;BME280;57728;50.448;18.824;2022-07-23T06:23:33;97846.13;;;26.20;40.54
67397;BME280;57728;50.448;18.824;2022-07-23T06:25:34;97857.25;;;26.27;40.62
67397;BME280;57728;50.448;18.824;2022-07-23T06:27:35;97859.63;;;26.36;40.12
67397;BME280;57728;50.448;18.824;2022-07-23T06:29:37;97853.75;;;26.41;39.71
67397;BME280;57728;50.448;18.824;2022-07-23T06:31:38;97858.50;;;26.47;39.25
67397;BME280;57728;50.448;18.824;2022-07-23T06:33:39;97858.94;;;26.53;39.05
67397;BME280;57728;50.448;18.824;2022-07-23T06:35:41;97849.84;;;26.60;39.05
67397;BME280;57728;50.448;18.824;2022-07-23T06:37:42;97862.50;;;26.68;38.74
67397;BME280;57728;50.448;18.824;2022-07-23T06:39:43;97849.88;;;26.74;38.35
67397;BME280;57728;50.448;18.824;2022-07-23T06:41:45;97860.53;;;26.75;38.45
67397;BME280;57728;50.448;18.824;2022-07-23T06:43:47;97857.41;;;26.81;38.46
67397;BME280;57728;50.448;18.824;2022-07-23T06:45:50;97851.91;;;26.88;38.12
67397;BME280;57728;50.448;18.824;2022-07-23T06:47:52;97850.69;;;26.85;37.32
67397;BME280;57728;50.448;18.824;2022-07-23T06:49:56;97854.66;;;26.88;37.61
67397;BME280;57728;50.448;18.824;2022-07-23T06:51:59;97854.66;;;26.91;37.03
67397;BME280;57728;50.448;18.824;2022-07-23T06:54:02;97856.25;;;26.96;36.97
67397;BME280;57728;50.448;18.824;2022-07-23T06:56:03;97860.22;;;26.98;37.27
67397;BME280;57728;50.448;18.824;2022-07-23T06:58:04;97861.00;;;27.06;37.64
67397;BME280;57728;50.448;18.824;2022-07-23T07:00:07;97864.16;;;27.08;37.62
67397;BME280;57728;50.448;18.824;2022-07-23T07:02:09;97854.31;;;27.14;37.57
67397;BME280;57728;50.448;18.824;2022-07-23T07:04:10;97855.09;;;27.22;37.74
67397;BME280;57728;50.448;18.824;2022-07-23T07:06:12;97851.13;;;27.26;37.37
67397;BME280;57728;50.448;18.824;2022-07-23T07:08:14;97855.88;;;27.33;37.72
67397;BME280;57728;50.448;18.824;2022-07-23T07:10:15;97847.19;;;27.42;37.96
67397;BME280;57728;50.448;18.824;2022-07-23T07:12:18;97852.72;;;27.52;37.52
67397;BME280;57728;50.448;18.824;2022-07-23T07:14:20;97861.78;;;27.57;35.67
67397;BME280;57728;50.448;18.824;2022-07-23T07:16:21;97860.63;;;27.61;35.60
67397;BME280;57728;50.448;18.824;2022-07-23T07:18:23;97864.56;;;27.64;35.54
67397;BME280;57728;50.448;18.824;2022-07-23T07:20:24;97875.63;;;27.71;35.80
67397;BME280;57728;50.448;18.824;2022-07-23T07:22:25;97881.16;;;27.78;35.31
67397;BME280;57728;50.448;18.824;2022-07-23T07:24:28;97875.59;;;27.85;34.97
67397;BME280;57728;50.448;18.824;2022-07-23T07:26:29;97874.41;;;27.90;34.37
67397;BME280;57728;50.448;18.824;2022-07-23T07:28:31;97872.78;;;27.92;34.16
67397;BME280;57728;50.448;18.824;2022-07-23T07:30:33;97862.13;;;27.98;34.03
67397;BME280;57728;50.448;18.824;2022-07-23T07:32:34;97851.44;;;28.07;34.50
67397;BME280;57728;50.448;18.824;2022-07-23T07:34:37;97853.34;;;28.21;34.49
67397;BME280;57728;50.448;18.824;2022-07-23T07:36:39;97865.16;;;28.32;34.96
67397;BME280;57728;50.448;18.824;2022-07-23T07:38:40;97865.91;;;28.43;34.32
67397;BME280;57728;50.448;18.824;2022-07-23T07:40:41;97867.84;;;28.54;34.60
67397;BME280;57728;50.448;18.824;2022-07-23T07:42:47;97868.63;;;28.54;32.46
67397;BME280;57728;50.448;18.824;2022-07-23T07:44:50;97872.59;;;28.53;33.01
67397;BME280;57728;50.448;18.824;2022-07-23T07:46:51;97877.31;;;28.56;33.28
67397;BME280;57728;50.448;18.824;2022-07-23T07:48:54;97870.19;;;28.62;33.43
67397;BME280;57728;50.448;18.824;2022-07-23T07:50:55;97875.72;;;28.69;33.29
67397;BME280;57728;50.448;18.824;2022-07-23T07:52:56;97870.09;;;28.77;32.71
67397;BME280;57728;50.448;18.824;2022-07-23T07:54:58;97880.75;;;28.85;32.55
67397;BME280;57728;50.448;18.824;2022-07-23T07:56:59;97870.44;;;28.89;32.45
67397;BME280;57728;50.448;18.824;2022-07-23T07:59:00;97875.91;;;28.96;32.81
67397;BME280;57728;50.448;18.824;2022-07-23T08:01:02;97877.09;;;29.03;32.91
67397;BME280;57728;50.448;18.824;2022-07-23T08:03:03;97879.41;;;29.08;32.10
67397;BME280;57728;50.448;18.824;2022-07-23T08:05:05;97874.19;;;29.17;32.04
67397;BME280;57728;50.448;18.824;2022-07-23T08:07:07;97872.97;;;29.21;31.92
67397;BME280;57728;50.448;18.824;2022-07-23T08:09:08;97870.16;;;29.29;31.74
67397;BME280;57728;50.448;18.824;2022-07-23T08:11:09;97870.03;;;29.43;32.18
67397;BME280;57728;50.448;18.824;2022-07-23T08:13:13;97852.47;;;29.57;31.76
67397;BME280;57728;50.448;18.824;2022-07-23T08:15:17;97847.97;;;29.70;32.06
67397;BME280;57728;50.448;18.824;2022-07-23T08:17:19;97840.75;;;29.76;30.73
67397;BME280;57728;50.448;18.824;2022-07-23T08:19:21;97837.91;;;29.87;30.73
67397;BME280;57728;50.448;18.824;2022-07-23T08:21:22;97846.16;;;29.94;30.51
67397;BME280;57728;50.448;18.824;2022-07-23T08:23:24;97847.44;;;29.86;30.59
67397;BME280;57728;50.448;18.824;2022-07-23T08:25:31;97848.31;;;29.79;30.34
67397;BME280;57728;50.448;18.824;2022-07-23T08:27:34;97854.59;;;29.83;30.53
67397;BME280;57728;50.448;18.824;2022-07-23T08:29:35;97850.50;;;29.95;30.74
67397;BME280;57728;50.448;18.824;2022-07-23T08:31:37;97848.41;;;30.06;31.18
67397;BME280;57728;50.448;18.824;2022-07-23T08:33:38;97846.69;;;30.16;30.19
67397;BME280;57728;50.448;18.824;2022-07-23T08:35:41;97842.25;;;30.22;30.64
67397;BME280;57728;50.448;18.824;2022-07-23T08:37:47;97850.09;;;30.31;30.12
67397;BME280;57728;50.448;18.824;2022-07-23T08:39:48;97844.00;;;30.43;30.85
67397;BME280;57728;50.448;18.824;2022-07-23T08:41:49;97843.00;;;30.57;30.88
67397;BME280;57728;50.448;18.824;2022-07-23T08:43:52;97838.44;;;30.70;31.06
67397;BME280;57728;50.448;18.824;2022-07-23T08:45:56;97841.00;;;30.84;31.29
67397;BME280;57728;50.448;18.824;2022-07-23T08:47:59;97840.19;;;30.87;28.70
67397;BME280;57728;50.448;18.824;2022-07-23T08:50:01;97839.00;;;30.85;28.23
67397;BME280;57728;50.448;18.824;2022-07-23T08:52:02;97843.00;;;30.84;28.24
67397;BME280;57728;50.448;18.824;2022-07-23T08:54:04;97848.38;;;30.98;29.93
67397;BME280;57728;50.448;18.824;2022-07-23T08:56:06;97838.47;;;31.21;30.04
67397;BME280;57728;50.448;18.824;2022-07-23T08:58:09;97845.38;;;31.36;28.82
67397;BME280;57728;50.448;18.824;2022-07-23T09:00:11;97842.41;;;31.47;28.22
67397;BME280;57728;50.448;18.824;2022-07-23T09:02:13;97847.69;;;31.41;28.18
67397;BME280;57728;50.448;18.824;2022-07-23T09:04:14;97854.53;;;31.36;27.43
67397;BME280;57728;50.448;18.824;2022-07-23T09:06:15;97850.16;;;31.35;27.54
67397;BME280;57728;50.448;18.824;2022-07-23T09:08:18;97853.06;;;31.28;27.90
67397;BME280;57728;50.448;18.824;2022-07-23T09:10:22;97847.00;;;31.33;29.64
67397;BME280;57728;50.448;18.824;2022-07-23T09:12:25;97852.91;;;31.39;28.61
67397;BME280;57728;50.448;18.824;2022-07-23T09:14:44;97844.88;;;31.45;29.27
67397;BME280;57728;50.448;18.824;2022-07-23T09:16:49;97853.22;;;31.45;29.07
67397;BME280;57728;50.448;18.824;2022-07-23T09:18:57;97854.38;;;31.47;28.47
67397;BME280;57728;50.448;18.824;2022-07-23T09:23:13;97853.75;;;31.59;27.33
67397;BME280;57728;50.448;18.824;2022-07-23T09:25:17;97851.41;;;31.78;27.71
67397;BME280;57728;50.448;18.824;2022-07-23T09:27:20;97853.94;;;31.92;27.25
67397;BME280;57728;50.448;18.824;2022-07-23T09:29:25;97851.38;;;32.01;27.07
67397;BME280;57728;50.448;18.824;2022-07-23T09:33:46;97857.38;;;32.59;26.85
67397;BME280;57728;50.448;18.824;2022-07-23T09:35:55;97864.59;;;32.93;26.49
67397;BME280;57728;50.448;18.824;2022-07-23T09:38:02;97853.88;;;33.41;25.78
67397;BME280;57728;50.448;18.824;2022-07-23T09:40:09;97860.59;;;34.05;25.48
67397;BME280;57728;50.448;18.824;2022-07-23T09:42:20;97854.09;;;34.37;24.47
67397;BME280;57728;50.448;18.824;2022-07-23T09:44:25;97850.97;;;34.48;24.54
67397;BME280;57728;50.448;18.824;2022-07-23T09:46:27;97851.41;;;34.46;25.42
67397;BME280;57728;50.448;18.824;2022-07-23T09:48:29;97853.63;;;34.39;24.29
67397;BME280;57728;50.448;18.824;2022-07-23T09:50:30;97850.09;;;34.09;25.74
67397;BME280;57728;50.448;18.824;2022-07-23T09:52:43;97851.19;;;33.82;25.54
67397;BME280;57728;50.448;18.824;2022-07-23T09:54:57;97839.91;;;33.57;25.21
67397;BME280;57728;50.448;18.824;2022-07-23T09:57:13;97845.16;;;33.38;25.78
67397;BME280;57728;50.448;18.824;2022-07-23T09:59:23;97838.53;;;33.16;25.96
67397;BME280;57728;50.448;18.824;2022-07-23T10:01:27;97837.66;;;33.03;25.89
67397;BME280;57728;50.448;18.824;2022-07-23T10:03:29;97832.56;;;32.81;26.07
67397;BME280;57728;50.448;18.824;2022-07-23T10:05:52;97834.47;;;32.68;26.17
67397;BME280;57728;50.448;18.824;2022-07-23T10:08:23;97829.06;;;32.61;26.87
67397;BME280;57728;50.448;18.824;2022-07-23T10:10:46;97830.00;;;32.71;26.16
67397;BME280;57728;50.448;18.824;2022-07-23T10:12:48;97828.13;;;32.84;26.32
67397;BME280;57728;50.448;18.824;2022-07-23T10:15:09;97831.09;;;32.93;25.44
67397;BME280;57728;50.448;18.824;2022-07-23T10:17:11;97835.19;;;32.88;25.54
67397;BME280;57728;50.448;18.824;2022-07-23T10:19:13;97829.59;;;32.88;25.32
67397;BME280;57728;50.448;18.824;2022-07-23T10:21:40;97831.00;;;32.97;25.96
67397;BME280;57728;50.448;18.824;2022-07-23T10:32:02;97817.66;;;33.37;25.79
67397;BME280;57728;50.448;18.824;2022-07-23T10:36:31;97817.53;;;34.02;25.01
67397;BME280;57728;50.448;18.824;2022-07-23T10:41:37;97820.44;;;34.12;24.02
67397;BME280;57728;50.448;18.824;2022-07-23T10:43:40;97815.69;;;34.25;23.62
67397;BME280;57728;50.448;18.824;2022-07-23T10:45:42;97821.22;;;34.54;24.13
67397;BME280;57728;50.448;18.824;2022-07-23T10:47:44;97815.75;;;35.01;23.11
67397;BME280;57728;50.448;18.824;2022-07-23T10:49:46;97810.34;;;35.20;22.33
67397;BME280;57728;50.448;18.824;2022-07-23T10:54:26;97807.38;;;35.36;21.50
67397;BME280;57728;50.448;18.824;2022-07-23T10:56:50;97799.00;;;35.71;21.67
67397;BME280;57728;50.448;18.824;2022-07-23T10:59:05;97811.09;;;36.02;21.23
67397;BME280;57728;50.448;18.824;2022-07-23T11:01:36;97800.56;;;36.16;21.40
67397;BME280;57728;50.448;18.824;2022-07-23T11:03:39;97800.31;;;36.01;20.49
67397;BME280;57728;50.448;18.824;2022-07-23T11:05:45;97794.00;;;36.10;21.36